sensor_id;sensor_type;location;lat;lon;timestamp;temperature;humidity
76305;DHT22;65111;50.536;19.204;2023-04-03T00:01:22;2.70;88.50
76305;DHT22;65111;50.536;19.204;2023-04-03T00:03:49;2.90;88.60
76305;DHT22;65111;50.536;19.204;2023-04-03T00:06:15;2.60;88.70
76305;DHT22;65111;50.536;19.204;2023-04-03T00:08:41;2.70;88.90
76305;DHT22;65111;50.536;19.204;2023-04-03T00:11:08;2.70;88.90
76305;DHT22;65111;50.536;19.204;2023-04-03T00:13:35;2.80;88.90
76305;DHT22;65111;50.536;19.204;2023-04-03T00:16:02;2.60;89.10
76305;DHT22;65111;50.536;19.204;2023-04-03T00:18:29;2.60;89.20
76305;DHT22;65111;50.536;19.204;2023-04-03T00:20:55;2.80;89.20
76305;DHT22;65111;50.536;19.204;2023-04-03T00:23:21;2.50;89.30
76305;DHT22;65111;50.536;19.204;2023-04-03T00:25:51;2.80;89.20
76305;DHT22;65111;50.536;19.204;2023-04-03T00:28:18;2.80;89.30
76305;DHT22;65111;50.536;19.204;2023-04-03T00:30:44;2.60;89.30
76305;DHT22;65111;50.536;19.204;2023-04-03T00:33:12;2.60;89.30
76305;DHT22;65111;50.536;19.204;2023-04-03T00:35:39;2.70;89.40
76305;DHT22;65111;50.536;19.204;2023-04-03T00:38:06;2.60;89.40
76305;DHT22;65111;50.536;19.204;2023-04-03T00:40:38;2.70;89.30
76305;DHT22;65111;50.536;19.204;2023-04-03T00:43:12;2.60;89.30
76305;DHT22;65111;50.536;19.204;2023-04-03T00:45:43;2.80;89.30
76305;DHT22;65111;50.536;19.204;2023-04-03T00:48:28;2.60;89.20
76305;DHT22;65111;50.536;19.204;2023-04-03T00:50:55;2.60;89.30
76305;DHT22;65111;50.536;19.204;2023-04-03T00:53:30;2.60;89.40
76305;DHT22;65111;50.536;19.204;2023-04-03T00:55:57;2.60;89.50
76305;DHT22;65111;50.536;19.204;2023-04-03T00:58:32;2.50;89.30
76305;DHT22;65111;50.536;19.204;2023-04-03T01:01:04;2.70;89.40
76305;DHT22;65111;50.536;19.204;2023-04-03T01:03:30;2.70;89.30
76305;DHT22;65111;50.536;19.204;2023-04-03T01:05:57;2.50;89.40
76305;DHT22;65111;50.536;19.204;2023-04-03T01:08:24;2.40;89.50
76305;DHT22;65111;50.536;19.204;2023-04-03T01:10:50;2.30;89.50
76305;DHT22;65111;50.536;19.204;2023-04-03T01:15:50;2.20;89.70
76305;DHT22;65111;50.536;19.204;2023-04-03T01:18:16;2.40;89.60
76305;DHT22;65111;50.536;19.204;2023-04-03T01:26:38;2.40;89.60
76305;DHT22;65111;50.536;19.204;2023-04-03T01:29:05;2.30;89.60
76305;DHT22;65111;50.536;19.204;2023-04-03T01:34:19;2.30;89.70
76305;DHT22;65111;50.536;19.204;2023-04-03T01:36:45;2.30;89.60
76305;DHT22;65111;50.536;19.204;2023-04-03T01:39:12;2.20;89.50
76305;DHT22;65111;50.536;19.204;2023-04-03T01:41:38;2.30;89.60
76305;DHT22;65111;50.536;19.204;2023-04-03T01:44:04;2.30;89.70
76305;DHT22;65111;50.536;19.204;2023-04-03T01:46:31;2.30;89.60
76305;DHT22;65111;50.536;19.204;2023-04-03T01:48:57;2.30;89.30
76305;DHT22;65111;50.536;19.204;2023-04-03T01:51:23;2.10;89.30
76305;DHT22;65111;50.536;19.204;2023-04-03T01:53:50;2.20;89.20
76305;DHT22;65111;50.536;19.204;2023-04-03T01:56:17;2.20;89.30
76305;DHT22;65111;50.536;19.204;2023-04-03T01:58:43;2.30;89.10
76305;DHT22;65111;50.536;19.204;2023-04-03T02:01:09;2.10;89.00
76305;DHT22;65111;50.536;19.204;2023-04-03T02:03:35;2.00;88.90
76305;DHT22;65111;50.536;19.204;2023-04-03T02:06:02;2.00;89.00
76305;DHT22;65111;50.536;19.204;2023-04-03T02:08:28;2.20;89.30
76305;DHT22;65111;50.536;19.204;2023-04-03T02:10:55;2.10;89.40
76305;DHT22;65111;50.536;19.204;2023-04-03T02:13:20;2.10;89.40
76305;DHT22;65111;50.536;19.204;2023-04-03T02:15:46;2.20;89.30
76305;DHT22;65111;50.536;19.204;2023-04-03T02:18:13;2.20;89.30
76305;DHT22;65111;50.536;19.204;2023-04-03T02:20:39;2.20;89.20
76305;DHT22;65111;50.536;19.204;2023-04-03T02:23:06;2.30;89.20
76305;DHT22;65111;50.536;19.204;2023-04-03T02:25:33;2.10;89.10
76305;DHT22;65111;50.536;19.204;2023-04-03T02:27:59;2.20;88.90
76305;DHT22;65111;50.536;19.204;2023-04-03T02:30:25;2.10;88.90
76305;DHT22;65111;50.536;19.204;2023-04-03T02:32:52;2.20;88.70
76305;DHT22;65111;50.536;19.204;2023-04-03T02:35:18;2.20;88.70
76305;DHT22;65111;50.536;19.204;2023-04-03T02:37:44;2.20;88.70
76305;DHT22;65111;50.536;19.204;2023-04-03T02:40:10;2.20;88.50
76305;DHT22;65111;50.536;19.204;2023-04-03T02:42:37;2.20;88.50
76305;DHT22;65111;50.536;19.204;2023-04-03T02:45:03;2.10;88.40
76305;DHT22;65111;50.536;19.204;2023-04-03T02:47:30;2.10;88.20
76305;DHT22;65111;50.536;19.204;2023-04-03T02:49:56;2.00;88.10
76305;DHT22;65111;50.536;19.204;2023-04-03T02:52:22;2.00;88.20
76305;DHT22;65111;50.536;19.204;2023-04-03T02:54:48;2.00;88.20
76305;DHT22;65111;50.536;19.204;2023-04-03T02:57:14;2.10;88.20
76305;DHT22;65111;50.536;19.204;2023-04-03T02:59:40;2.00;88.10
76305;DHT22;65111;50.536;19.204;2023-04-03T03:02:07;1.90;88.10
76305;DHT22;65111;50.536;19.204;2023-04-03T03:04:34;1.80;88.00
76305;DHT22;65111;50.536;19.204;2023-04-03T03:07:01;1.80;87.90
76305;DHT22;65111;50.536;19.204;2023-04-03T03:09:27;1.90;87.80
76305;DHT22;65111;50.536;19.204;2023-04-03T03:11:56;1.70;87.70
76305;DHT22;65111;50.536;19.204;2023-04-03T03:14:23;1.70;87.60
76305;DHT22;65111;50.536;19.204;2023-04-03T03:16:49;1.80;87.60
76305;DHT22;65111;50.536;19.204;2023-04-03T03:19:15;1.80;87.70
76305;DHT22;65111;50.536;19.204;2023-04-03T03:21:41;1.90;87.50
76305;DHT22;65111;50.536;19.204;2023-04-03T03:24:07;1.80;87.40
76305;DHT22;65111;50.536;19.204;2023-04-03T03:26:34;1.70;87.40
76305;DHT22;65111;50.536;19.204;2023-04-03T03:29:00;1.60;87.30
76305;DHT22;65111;50.536;19.204;2023-04-03T03:31:26;1.50;87.30
76305;DHT22;65111;50.536;19.204;2023-04-03T03:33:52;1.60;87.40
76305;DHT22;65111;50.536;19.204;2023-04-03T03:36:19;1.50;87.40
76305;DHT22;65111;50.536;19.204;2023-04-03T03:38:45;1.80;87.20
76305;DHT22;65111;50.536;19.204;2023-04-03T03:41:11;1.60;87.20
76305;DHT22;65111;50.536;19.204;2023-04-03T03:43:37;1.60;87.10
76305;DHT22;65111;50.536;19.204;2023-04-03T03:46:03;1.60;87.10
76305;DHT22;65111;50.536;19.204;2023-04-03T03:48:29;1.50;87.20
76305;DHT22;65111;50.536;19.204;2023-04-03T03:50:55;1.40;87.10
76305;DHT22;65111;50.536;19.204;2023-04-03T03:53:21;1.30;87.10
76305;DHT22;65111;50.536;19.204;2023-04-03T03:55:47;1.50;87.00
76305;DHT22;65111;50.536;19.204;2023-04-03T03:58:13;1.50;87.10
76305;DHT22;65111;50.536;19.204;2023-04-03T04:00:40;1.40;87.10
76305;DHT22;65111;50.536;19.204;2023-04-03T04:03:06;1.30;87.20
76305;DHT22;65111;50.536;19.204;2023-04-03T04:05:33;1.40;87.00
76305;DHT22;65111;50.536;19.204;2023-04-03T04:07:59;1.20;87.10
76305;DHT22;65111;50.536;19.204;2023-04-03T04:10:25;1.20;87.10
76305;DHT22;65111;50.536;19.204;2023-04-03T04:12:51;1.30;87.00
76305;DHT22;65111;50.536;19.204;2023-04-03T04:15:17;1.40;87.00
76305;DHT22;65111;50.536;19.204;2023-04-03T04:17:44;1.20;87.00
76305;DHT22;65111;50.536;19.204;2023-04-03T04:20:11;1.10;86.90
76305;DHT22;65111;50.536;19.204;2023-04-03T04:22:37;1.20;87.10
76305;DHT22;65111;50.536;19.204;2023-04-03T04:25:04;1.00;87.00
76305;DHT22;65111;50.536;19.204;2023-04-03T04:27:30;1.10;87.00
76305;DHT22;65111;50.536;19.204;2023-04-03T04:29:56;1.00;87.00
76305;DHT22;65111;50.536;19.204;2023-04-03T04:32:23;1.00;87.00
76305;DHT22;65111;50.536;19.204;2023-04-03T04:34:49;0.90;87.10
76305;DHT22;65111;50.536;19.204;2023-04-03T04:37:15;0.80;87.30
76305;DHT22;65111;50.536;19.204;2023-04-03T04:39:41;1.10;87.10
76305;DHT22;65111;50.536;19.204;2023-04-03T04:42:07;0.90;87.10
76305;DHT22;65111;50.536;19.204;2023-04-03T04:44:41;1.10;87.00
76305;DHT22;65111;50.536;19.204;2023-04-03T04:47:07;1.00;86.80
76305;DHT22;65111;50.536;19.204;2023-04-03T04:49:33;1.20;86.70
76305;DHT22;65111;50.536;19.204;2023-04-03T04:51:59;1.00;86.60
76305;DHT22;65111;50.536;19.204;2023-04-03T04:54:25;1.10;86.60
76305;DHT22;65111;50.536;19.204;2023-04-03T04:56:51;1.20;86.50
76305;DHT22;65111;50.536;19.204;2023-04-03T04:59:18;1.10;86.30
76305;DHT22;65111;50.536;19.204;2023-04-03T05:01:43;1.00;86.30
76305;DHT22;65111;50.536;19.204;2023-04-03T05:04:10;1.20;86.20
76305;DHT22;65111;50.536;19.204;2023-04-03T05:06:38;1.00;86.20
76305;DHT22;65111;50.536;19.204;2023-04-03T05:09:04;1.10;86.00
76305;DHT22;65111;50.536;19.204;2023-04-03T05:11:31;1.20;85.90
76305;DHT22;65111;50.536;19.204;2023-04-03T05:13:57;1.20;85.80
76305;DHT22;65111;50.536;19.204;2023-04-03T05:16:23;1.30;85.80
76305;DHT22;65111;50.536;19.204;2023-04-03T05:18:49;1.10;85.70
76305;DHT22;65111;50.536;19.204;2023-04-03T05:21:15;1.10;85.60
76305;DHT22;65111;50.536;19.204;2023-04-03T05:23:41;1.30;85.40
76305;DHT22;65111;50.536;19.204;2023-04-03T05:26:07;1.20;85.50
76305;DHT22;65111;50.536;19.204;2023-04-03T05:28:34;1.30;85.50
76305;DHT22;65111;50.536;19.204;2023-04-03T05:31:01;1.10;85.50
76305;DHT22;65111;50.536;19.204;2023-04-03T05:33:27;1.30;85.30
76305;DHT22;65111;50.536;19.204;2023-04-03T05:35:54;1.40;85.20
76305;DHT22;65111;50.536;19.204;2023-04-03T05:38:20;1.50;85.10
76305;DHT22;65111;50.536;19.204;2023-04-03T05:40:46;1.40;84.90
76305;DHT22;65111;50.536;19.204;2023-04-03T05:43:12;1.30;84.60
76305;DHT22;65111;50.536;19.204;2023-04-03T05:45:38;1.40;84.70
76305;DHT22;65111;50.536;19.204;2023-04-03T05:48:04;1.30;84.60
76305;DHT22;65111;50.536;19.204;2023-04-03T05:50:30;1.50;84.50
76305;DHT22;65111;50.536;19.204;2023-04-03T05:52:58;1.40;84.30
76305;DHT22;65111;50.536;19.204;2023-04-03T05:55:25;1.70;84.00
76305;DHT22;65111;50.536;19.204;2023-04-03T05:57:51;1.70;84.10
76305;DHT22;65111;50.536;19.204;2023-04-03T06:00:17;1.90;83.80
76305;DHT22;65111;50.536;19.204;2023-04-03T06:02:44;1.80;83.40
76305;DHT22;65111;50.536;19.204;2023-04-03T06:05:10;1.90;83.00
76305;DHT22;65111;50.536;19.204;2023-04-03T06:07:38;1.90;82.90
76305;DHT22;65111;50.536;19.204;2023-04-03T06:10:05;1.90;82.50
76305;DHT22;65111;50.536;19.204;2023-04-03T06:12:31;2.10;82.10
76305;DHT22;65111;50.536;19.204;2023-04-03T06:14:57;2.00;82.30
76305;DHT22;65111;50.536;19.204;2023-04-03T06:17:23;2.20;82.30
76305;DHT22;65111;50.536;19.204;2023-04-03T06:19:50;2.10;82.40
76305;DHT22;65111;50.536;19.204;2023-04-03T06:22:16;2.10;82.40
76305;DHT22;65111;50.536;19.204;2023-04-03T06:24:42;2.40;81.80
76305;DHT22;65111;50.536;19.204;2023-04-03T06:27:10;2.60;81.40
76305;DHT22;65111;50.536;19.204;2023-04-03T06:29:36;2.90;80.80
76305;DHT22;65111;50.536;19.204;2023-04-03T06:32:03;3.30;79.50
76305;DHT22;65111;50.536;19.204;2023-04-03T06:34:29;3.30;79.30
76305;DHT22;65111;50.536;19.204;2023-04-03T06:36:55;3.30;78.50
76305;DHT22;65111;50.536;19.204;2023-04-03T06:39:21;3.40;77.70
76305;DHT22;65111;50.536;19.204;2023-04-03T06:41:49;3.30;77.60
76305;DHT22;65111;50.536;19.204;2023-04-03T06:44:16;3.40;77.20
76305;DHT22;65111;50.536;19.204;2023-04-03T06:46:44;3.10;77.40
76305;DHT22;65111;50.536;19.204;2023-04-03T06:49:11;3.20;77.70
76305;DHT22;65111;50.536;19.204;2023-04-03T06:51:37;2.80;77.60
76305;DHT22;65111;50.536;19.204;2023-04-03T06:54:04;2.90;77.80
76305;DHT22;65111;50.536;19.204;2023-04-03T06:56:31;3.00;78.00
76305;DHT22;65111;50.536;19.204;2023-04-03T06:58:58;2.80;78.00
76305;DHT22;65111;50.536;19.204;2023-04-03T07:01:26;3.00;77.90
76305;DHT22;65111;50.536;19.204;2023-04-03T07:03:54;3.20;77.60
76305;DHT22;65111;50.536;19.204;2023-04-03T07:06:21;3.50;76.60
76305;DHT22;65111;50.536;19.204;2023-04-03T07:08:47;3.60;75.70
76305;DHT22;65111;50.536;19.204;2023-04-03T07:11:15;3.90;75.60
76305;DHT22;65111;50.536;19.204;2023-04-03T07:13:41;3.80;75.30
76305;DHT22;65111;50.536;19.204;2023-04-03T07:16:08;3.90;74.90
76305;DHT22;65111;50.536;19.204;2023-04-03T07:18:35;4.00;73.90
76305;DHT22;65111;50.536;19.204;2023-04-03T07:21:01;4.40;73.90
76305;DHT22;65111;50.536;19.204;2023-04-03T07:23:28;4.50;74.40
76305;DHT22;65111;50.536;19.204;2023-04-03T07:25:54;4.50;73.30
76305;DHT22;65111;50.536;19.204;2023-04-03T07:28:21;4.40;72.70
76305;DHT22;65111;50.536;19.204;2023-04-03T07:30:53;4.70;72.80
76305;DHT22;65111;50.536;19.204;2023-04-03T07:33:23;4.80;72.50
76305;DHT22;65111;50.536;19.204;2023-04-03T07:35:49;4.90;71.70
76305;DHT22;65111;50.536;19.204;2023-04-03T07:38:16;5.00;71.10
76305;DHT22;65111;50.536;19.204;2023-04-03T07:40:49;4.90;70.80
76305;DHT22;65111;50.536;19.204;2023-04-03T07:43:16;5.10;70.20
76305;DHT22;65111;50.536;19.204;2023-04-03T07:45:43;5.20;69.40
76305;DHT22;65111;50.536;19.204;2023-04-03T07:48:13;5.10;69.10
76305;DHT22;65111;50.536;19.204;2023-04-03T07:50:42;5.40;68.60
76305;DHT22;65111;50.536;19.204;2023-04-03T07:53:09;5.40;68.70
76305;DHT22;65111;50.536;19.204;2023-04-03T07:55:36;5.60;68.80
76305;DHT22;65111;50.536;19.204;2023-04-03T07:58:10;5.60;68.70
76305;DHT22;65111;50.536;19.204;2023-04-03T08:00:36;5.70;68.70
76305;DHT22;65111;50.536;19.204;2023-04-03T08:03:03;5.90;68.10
76305;DHT22;65111;50.536;19.204;2023-04-03T08:05:29;5.90;67.60
76305;DHT22;65111;50.536;19.204;2023-04-03T08:07:55;6.00;67.30
76305;DHT22;65111;50.536;19.204;2023-04-03T08:10:21;6.10;66.80
76305;DHT22;65111;50.536;19.204;2023-04-03T08:12:48;6.30;66.50
76305;DHT22;65111;50.536;19.204;2023-04-03T08:15:14;6.40;66.00
76305;DHT22;65111;50.536;19.204;2023-04-03T08:17:40;6.40;64.10
76305;DHT22;65111;50.536;19.204;2023-04-03T08:20:09;6.40;63.80
76305;DHT22;65111;50.536;19.204;2023-04-03T08:22:35;6.40;63.50
76305;DHT22;65111;50.536;19.204;2023-04-03T08:25:01;7.00;64.00
76305;DHT22;65111;50.536;19.204;2023-04-03T08:27:27;8.20;62.40
76305;DHT22;65111;50.536;19.204;2023-04-03T08:29:54;9.80;60.50
76305;DHT22;65111;50.536;19.204;2023-04-03T08:32:21;11.00;57.00
76305;DHT22;65111;50.536;19.204;2023-04-03T08:34:47;11.50;54.10
76305;DHT22;65111;50.536;19.204;2023-04-03T08:37:14;11.40;53.00
76305;DHT22;65111;50.536;19.204;2023-04-03T08:39:42;10.90;53.00
76305;DHT22;65111;50.536;19.204;2023-04-03T08:42:32;10.30;53.20
76305;DHT22;65111;50.536;19.204;2023-04-03T08:50:54;8.90;55.80
76305;DHT22;65111;50.536;19.204;2023-04-03T08:53:25;8.60;55.80
76305;DHT22;65111;50.536;19.204;2023-04-03T08:55:53;8.40;55.80
76305;DHT22;65111;50.536;19.204;2023-04-03T08:58:26;8.60;54.80
76305;DHT22;65111;50.536;19.204;2023-04-03T09:01:00;9.40;55.10
76305;DHT22;65111;50.536;19.204;2023-04-03T09:03:32;11.10;53.60
76305;DHT22;65111;50.536;19.204;2023-04-03T09:06:25;13.90;49.90
76305;DHT22;65111;50.536;19.204;2023-04-03T09:17:53;14.90;43.90
76305;DHT22;65111;50.536;19.204;2023-04-03T09:20:39;14.40;44.80
76305;DHT22;65111;50.536;19.204;2023-04-03T09:25:45;13.70;43.80
76305;DHT22;65111;50.536;19.204;2023-04-03T09:28:11;13.40;44.20
76305;DHT22;65111;50.536;19.204;2023-04-03T09:30:38;13.40;44.10
76305;DHT22;65111;50.536;19.204;2023-04-03T09:33:04;13.90;44.60
76305;DHT22;65111;50.536;19.204;2023-04-03T09:35:34;15.20;44.00
76305;DHT22;65111;50.536;19.204;2023-04-03T09:40:51;19.70;39.50
76305;DHT22;65111;50.536;19.204;2023-04-03T09:43:31;23.10;35.80
76305;DHT22;65111;50.536;19.204;2023-04-03T09:49:04;29.20;32.60
76305;DHT22;65111;50.536;19.204;2023-04-03T09:51:31;31.90;30.60
76305;DHT22;65111;50.536;19.204;2023-04-03T09:53:58;32.90;28.00
76305;DHT22;65111;50.536;19.204;2023-04-03T09:56:27;31.60;29.10
76305;DHT22;65111;50.536;19.204;2023-04-03T10:01:34;27.00;29.80
76305;DHT22;65111;50.536;19.204;2023-04-03T10:04:13;24.40;31.00
76305;DHT22;65111;50.536;19.204;2023-04-03T10:06:42;22.90;32.10
76305;DHT22;65111;50.536;19.204;2023-04-03T10:09:27;23.70;32.10
76305;DHT22;65111;50.536;19.204;2023-04-03T10:11:59;25.30;31.40
76305;DHT22;65111;50.536;19.204;2023-04-03T10:14:31;27.70;30.50
76305;DHT22;65111;50.536;19.204;2023-04-03T10:19:43;33.30;27.90
76305;DHT22;65111;50.536;19.204;2023-04-03T10:22:36;35.10;27.10
76305;DHT22;65111;50.536;19.204;2023-04-03T10:30:54;35.90;26.60
76305;DHT22;65111;50.536;19.204;2023-04-03T10:36:34;36.70;25.90
76305;DHT22;65111;50.536;19.204;2023-04-03T10:39:06;34.70;26.00
76305;DHT22;65111;50.536;19.204;2023-04-03T10:44:36;30.30;27.60
76305;DHT22;65111;50.536;19.204;2023-04-03T10:47:16;31.00;27.00
76305;DHT22;65111;50.536;19.204;2023-04-03T10:49:50;30.20;26.50
76305;DHT22;65111;50.536;19.204;2023-04-03T10:52:38;27.70;26.90
76305;DHT22;65111;50.536;19.204;2023-04-03T10:55:31;25.60;28.50
76305;DHT22;65111;50.536;19.204;2023-04-03T10:58:01;24.60;29.10
76305;DHT22;65111;50.536;19.204;2023-04-03T11:03:08;23.00;29.60
76305;DHT22;65111;50.536;19.204;2023-04-03T11:05:45;22.10;30.10
76305;DHT22;65111;50.536;19.204;2023-04-03T11:11:00;21.50;30.90
76305;DHT22;65111;50.536;19.204;2023-04-03T11:13:34;21.60;31.00
76305;DHT22;65111;50.536;19.204;2023-04-03T11:16:02;21.30;30.80
76305;DHT22;65111;50.536;19.204;2023-04-03T11:23:57;18.90;32.50
76305;DHT22;65111;50.536;19.204;2023-04-03T11:26:35;17.90;33.00
76305;DHT22;65111;50.536;19.204;2023-04-03T11:29:07;16.60;33.70
76305;DHT22;65111;50.536;19.204;2023-04-03T11:36:53;14.20;36.80
76305;DHT22;65111;50.536;19.204;2023-04-03T11:39:30;13.30;36.80
76305;DHT22;65111;50.536;19.204;2023-04-03T11:47:55;10.80;40.30
76305;DHT22;65111;50.536;19.204;2023-04-03T12:16:29;14.70;36.90
76305;DHT22;65111;50.536;19.204;2023-04-03T12:18:58;13.70;37.00
76305;DHT22;65111;50.536;19.204;2023-04-03T12:46:19;10.90;40.80
76305;DHT22;65111;50.536;19.204;2023-04-03T12:51:26;11.50;40.60
76305;DHT22;65111;50.536;19.204;2023-04-03T12:54:00;11.10;39.30
76305;DHT22;65111;50.536;19.204;2023-04-03T12:56:29;10.70;39.10
76305;DHT22;65111;50.536;19.204;2023-04-03T12:59:23;10.30;40.60
76305;DHT22;65111;50.536;19.204;2023-04-03T13:01:57;10.00;41.80
76305;DHT22;65111;50.536;19.204;2023-04-03T13:04:24;10.10;42.10
76305;DHT22;65111;50.536;19.204;2023-04-03T13:06:51;10.20;42.50
76305;DHT22;65111;50.536;19.204;2023-04-03T13:09:27;10.20;41.50
76305;DHT22;65111;50.536;19.204;2023-04-03T13:12:15;10.10;41.10
76305;DHT22;65111;50.536;19.204;2023-04-03T13:14:55;9.90;41.60
76305;DHT22;65111;50.536;19.204;2023-04-03T13:17:25;9.80;42.40
76305;DHT22;65111;50.536;19.204;2023-04-03T13:19:51;9.70;43.20
76305;DHT22;65111;50.536;19.204;2023-04-03T13:22:35;9.90;42.40
76305;DHT22;65111;50.536;19.204;2023-04-03T13:25:07;10.00;41.90
76305;DHT22;65111;50.536;19.204;2023-04-03T13:27:34;10.20;41.60
76305;DHT22;65111;50.536;19.204;2023-04-03T13:30:02;10.00;42.20
76305;DHT22;65111;50.536;19.204;2023-04-03T13:32:31;9.90;42.90
76305;DHT22;65111;50.536;19.204;2023-04-03T13:34:58;9.60;42.90
76305;DHT22;65111;50.536;19.204;2023-04-03T13:37:33;9.60;42.50
76305;DHT22;65111;50.536;19.204;2023-04-03T13:40:12;9.70;42.50
76305;DHT22;65111;50.536;19.204;2023-04-03T13:42:40;9.70;41.90
76305;DHT22;65111;50.536;19.204;2023-04-03T13:47:40;9.60;42.00
76305;DHT22;65111;50.536;19.204;2023-04-03T13:50:26;9.60;41.80
76305;DHT22;65111;50.536;19.204;2023-04-03T13:53:11;9.60;40.90
76305;DHT22;65111;50.536;19.204;2023-04-03T13:56:00;9.40;41.70
76305;DHT22;65111;50.536;19.204;2023-04-03T13:58:33;9.10;42.80
76305;DHT22;65111;50.536;19.204;2023-04-03T14:01:21;9.00;42.50
76305;DHT22;65111;50.536;19.204;2023-04-03T14:03:57;8.90;42.90
76305;DHT22;65111;50.536;19.204;2023-04-03T14:06:24;8.90;43.60
76305;DHT22;65111;50.536;19.204;2023-04-03T14:08:51;8.90;43.60
76305;DHT22;65111;50.536;19.204;2023-04-03T14:11:20;8.80;42.80
76305;DHT22;65111;50.536;19.204;2023-04-03T14:13:48;8.80;43.10
76305;DHT22;65111;50.536;19.204;2023-04-03T14:16:22;8.90;43.00
76305;DHT22;65111;50.536;19.204;2023-04-03T14:18:50;8.80;44.10
76305;DHT22;65111;50.536;19.204;2023-04-03T14:21:18;8.60;43.30
76305;DHT22;65111;50.536;19.204;2023-04-03T14:23:45;8.60;43.40
76305;DHT22;65111;50.536;19.204;2023-04-03T14:26:14;8.30;43.60
76305;DHT22;65111;50.536;19.204;2023-04-03T14:28:42;8.10;44.30
76305;DHT22;65111;50.536;19.204;2023-04-03T14:31:10;8.20;44.50
76305;DHT22;65111;50.536;19.204;2023-04-03T14:33:37;8.00;43.80
76305;DHT22;65111;50.536;19.204;2023-04-03T14:36:20;8.00;43.20
76305;DHT22;65111;50.536;19.204;2023-04-03T14:38:47;8.00;43.00
76305;DHT22;65111;50.536;19.204;2023-04-03T14:41:16;7.80;43.10
76305;DHT22;65111;50.536;19.204;2023-04-03T14:43:43;7.70;43.90
76305;DHT22;65111;50.536;19.204;2023-04-03T14:46:14;7.70;44.20
76305;DHT22;65111;50.536;19.204;2023-04-03T14:48:41;7.30;44.50
76305;DHT22;65111;50.536;19.204;2023-04-03T14:51:12;7.50;44.60
76305;DHT22;65111;50.536;19.204;2023-04-03T14:53:39;7.30;45.20
76305;DHT22;65111;50.536;19.204;2023-04-03T14:56:18;7.30;45.30
76305;DHT22;65111;50.536;19.204;2023-04-03T14:58:44;6.80;44.90
76305;DHT22;65111;50.536;19.204;2023-04-03T15:01:14;7.00;45.50
76305;DHT22;65111;50.536;19.204;2023-04-03T15:03:41;6.80;45.50
76305;DHT22;65111;50.536;19.204;2023-04-03T15:06:09;6.80;45.30
76305;DHT22;65111;50.536;19.204;2023-04-03T15:08:36;6.50;46.00
76305;DHT22;65111;50.536;19.204;2023-04-03T15:11:03;6.50;46.70
76305;DHT22;65111;50.536;19.204;2023-04-03T15:13:29;6.30;46.60
76305;DHT22;65111;50.536;19.204;2023-04-03T15:15:55;6.20;47.00
76305;DHT22;65111;50.536;19.204;2023-04-03T15:18:24;6.50;47.10
76305;DHT22;65111;50.536;19.204;2023-04-03T15:20:54;6.30;46.70
76305;DHT22;65111;50.536;19.204;2023-04-03T15:23:21;6.20;46.80
76305;DHT22;65111;50.536;19.204;2023-04-03T15:25:52;6.20;47.10
76305;DHT22;65111;50.536;19.204;2023-04-03T15:28:32;6.00;46.80
76305;DHT22;65111;50.536;19.204;2023-04-03T15:30:59;6.00;46.80
76305;DHT22;65111;50.536;19.204;2023-04-03T15:33:26;6.00;47.40
76305;DHT22;65111;50.536;19.204;2023-04-03T15:35:52;6.10;47.60
76305;DHT22;65111;50.536;19.204;2023-04-03T15:38:19;5.90;47.30
76305;DHT22;65111;50.536;19.204;2023-04-03T15:40:45;5.90;47.10
76305;DHT22;65111;50.536;19.204;2023-04-03T15:43:13;6.00;46.50
76305;DHT22;65111;50.536;19.204;2023-04-03T15:45:40;5.90;46.50
76305;DHT22;65111;50.536;19.204;2023-04-03T15:48:07;5.80;47.00
76305;DHT22;65111;50.536;19.204;2023-04-03T15:50:34;5.60;46.90
76305;DHT22;65111;50.536;19.204;2023-04-03T15:53:00;5.60;47.20
76305;DHT22;65111;50.536;19.204;2023-04-03T15:55:33;5.50;47.40
76305;DHT22;65111;50.536;19.204;2023-04-03T15:58:00;5.40;47.50
76305;DHT22;65111;50.536;19.204;2023-04-03T16:00:27;5.20;47.80
76305;DHT22;65111;50.536;19.204;2023-04-03T16:03:04;5.20;48.00
76305;DHT22;65111;50.536;19.204;2023-04-03T16:05:31;5.20;48.20
76305;DHT22;65111;50.536;19.204;2023-04-03T16:07:59;5.00;48.30
76305;DHT22;65111;50.536;19.204;2023-04-03T16:10:26;5.00;48.70
76305;DHT22;65111;50.536;19.204;2023-04-03T16:12:52;4.80;48.60
76305;DHT22;65111;50.536;19.204;2023-04-03T16:15:19;5.00;49.30
76305;DHT22;65111;50.536;19.204;2023-04-03T16:17:45;4.70;49.60
76305;DHT22;65111;50.536;19.204;2023-04-03T16:20:12;4.60;49.70
76305;DHT22;65111;50.536;19.204;2023-04-03T16:22:39;4.50;49.90
76305;DHT22;65111;50.536;19.204;2023-04-03T16:25:07;4.60;49.80
76305;DHT22;65111;50.536;19.204;2023-04-03T16:27:33;4.60;50.30
76305;DHT22;65111;50.536;19.204;2023-04-03T16:29:59;4.60;50.70
76305;DHT22;65111;50.536;19.204;2023-04-03T16:32:28;4.50;51.20
76305;DHT22;65111;50.536;19.204;2023-04-03T16:34:56;4.50;51.00
76305;DHT22;65111;50.536;19.204;2023-04-03T16:37:22;4.40;50.50
76305;DHT22;65111;50.536;19.204;2023-04-03T16:39:48;4.30;50.80
76305;DHT22;65111;50.536;19.204;2023-04-03T16:42:15;4.20;51.00
76305;DHT22;65111;50.536;19.204;2023-04-03T16:44:41;4.30;51.00
76305;DHT22;65111;50.536;19.204;2023-04-03T16:47:08;4.00;51.30
76305;DHT22;65111;50.536;19.204;2023-04-03T16:49:34;4.00;51.70
76305;DHT22;65111;50.536;19.204;2023-04-03T16:52:03;3.90;52.00
76305;DHT22;65111;50.536;19.204;2023-04-03T16:54:30;4.00;51.80
76305;DHT22;65111;50.536;19.204;2023-04-03T16:56:56;3.80;52.10
76305;DHT22;65111;50.536;19.204;2023-04-03T16:59:23;3.80;52.10
76305;DHT22;65111;50.536;19.204;2023-04-03T17:01:49;3.80;52.40
76305;DHT22;65111;50.536;19.204;2023-04-03T17:04:15;3.50;52.40
76305;DHT22;65111;50.536;19.204;2023-04-03T17:06:41;3.40;52.60
76305;DHT22;65111;50.536;19.204;2023-04-03T17:09:08;3.50;53.10
76305;DHT22;65111;50.536;19.204;2023-04-03T17:11:35;3.30;53.70
76305;DHT22;65111;50.536;19.204;2023-04-03T17:14:01;3.50;53.70
76305;DHT22;65111;50.536;19.204;2023-04-03T17:16:28;3.30;54.00
76305;DHT22;65111;50.536;19.204;2023-04-03T17:18:55;3.10;54.00
76305;DHT22;65111;50.536;19.204;2023-04-03T17:21:21;3.20;54.00
76305;DHT22;65111;50.536;19.204;2023-04-03T17:23:50;3.10;54.30
76305;DHT22;65111;50.536;19.204;2023-04-03T17:26:18;2.80;54.60
76305;DHT22;65111;50.536;19.204;2023-04-03T17:28:44;2.90;54.90
76305;DHT22;65111;50.536;19.204;2023-04-03T17:31:10;3.00;55.00
76305;DHT22;65111;50.536;19.204;2023-04-03T17:33:36;2.90;55.10
76305;DHT22;65111;50.536;19.204;2023-04-03T17:36:03;3.00;55.00
76305;DHT22;65111;50.536;19.204;2023-04-03T17:38:30;2.90;55.00
76305;DHT22;65111;50.536;19.204;2023-04-03T17:40:58;2.80;55.50
76305;DHT22;65111;50.536;19.204;2023-04-03T17:43:25;2.70;55.90
76305;DHT22;65111;50.536;19.204;2023-04-03T17:45:51;2.80;55.90